sensor_id;sensor_type;location;lat;lon;timestamp;P1;durP1;ratioP1;P2;durP2;ratioP2
30378;SDS011;17168;49.164;9.060;2022-11-15T00:01:33;5.97;;;3.20;;
30378;SDS011;17168;49.164;9.060;2022-11-15T00:04:05;5.53;;;3.67;;
30378;SDS011;17168;49.164;9.060;2022-11-15T00:06:39;4.70;;;3.13;;
30378;SDS011;17168;49.164;9.060;2022-11-15T00:09:11;5.72;;;3.38;;
30378;SDS011;17168;49.164;9.060;2022-11-15T00:11:43;6.95;;;3.10;;
30378;SDS011;17168;49.164;9.060;2022-11-15T00:14:14;5.13;;;3.28;;
30378;SDS011;17168;49.164;9.060;2022-11-15T00:16:46;4.18;;;3.10;;
30378;SDS011;17168;49.164;9.060;2022-11-15T00:19:18;6.88;;;3.28;;
30378;SDS011;17168;49.164;9.060;2022-11-15T00:21:51;6.53;;;3.38;;
30378;SDS011;17168;49.164;9.060;2022-11-15T00:24:23;4.43;;;3.30;;
30378;SDS011;17168;49.164;9.060;2022-11-15T00:26:55;8.15;;;3.40;;
30378;SDS011;17168;49.164;9.060;2022-11-15T00:29:27;6.90;;;3.33;;
30378;SDS011;17168;49.164;9.060;2022-11-15T00:31:59;7.38;;;3.05;;
30378;SDS011;17168;49.164;9.060;2022-11-15T00:34:30;4.57;;;3.20;;
30378;SDS011;17168;49.164;9.060;2022-11-15T00:37:04;4.65;;;3.00;;
30378;SDS011;17168;49.164;9.060;2022-11-15T00:39:37;4.13;;;2.90;;
30378;SDS011;17168;49.164;9.060;2022-11-15T00:42:09;6.43;;;2.92;;
30378;SDS011;17168;49.164;9.060;2022-11-15T00:44:40;4.65;;;2.80;;
30378;SDS011;17168;49.164;9.060;2022-11-15T00:47:12;3.80;;;2.47;;
30378;SDS011;17168;49.164;9.060;2022-11-15T00:49:44;5.50;;;2.90;;
30378;SDS011;17168;49.164;9.060;2022-11-15T00:52:17;4.05;;;2.70;;
30378;SDS011;17168;49.164;9.060;2022-11-15T00:54:49;4.05;;;2.53;;
30378;SDS011;17168;49.164;9.060;2022-11-15T00:57:21;6.53;;;2.90;;
30378;SDS011;17168;49.164;9.060;2022-11-15T00:59:53;5.10;;;2.90;;
30378;SDS011;17168;49.164;9.060;2022-11-15T01:02:25;3.90;;;2.53;;
30378;SDS011;17168;49.164;9.060;2022-11-15T01:04:56;3.53;;;2.58;;
30378;SDS011;17168;49.164;9.060;2022-11-15T01:07:30;2.97;;;2.28;;
30378;SDS011;17168;49.164;9.060;2022-11-15T01:10:02;4.30;;;2.60;;
30378;SDS011;17168;49.164;9.060;2022-11-15T01:12:34;8.05;;;2.80;;
30378;SDS011;17168;49.164;9.060;2022-11-15T01:15:06;5.15;;;2.70;;
30378;SDS011;17168;49.164;9.060;2022-11-15T01:17:38;4.78;;;2.38;;
30378;SDS011;17168;49.164;9.060;2022-11-15T01:20:10;4.38;;;2.80;;
30378;SDS011;17168;49.164;9.060;2022-11-15T01:22:44;4.05;;;2.72;;
30378;SDS011;17168;49.164;9.060;2022-11-15T01:25:16;4.53;;;2.33;;
30378;SDS011;17168;49.164;9.060;2022-11-15T01:27:48;2.90;;;2.20;;
30378;SDS011;17168;49.164;9.060;2022-11-15T01:30:20;6.78;;;3.13;;
30378;SDS011;17168;49.164;9.060;2022-11-15T01:32:51;5.10;;;3.08;;
30378;SDS011;17168;49.164;9.060;2022-11-15T01:35:23;5.45;;;2.60;;
30378;SDS011;17168;49.164;9.060;2022-11-15T01:37:57;4.60;;;2.50;;
30378;SDS011;17168;49.164;9.060;2022-11-15T01:40:28;5.72;;;3.17;;
30378;SDS011;17168;49.164;9.060;2022-11-15T01:45:51;5.53;;;2.60;;
30378;SDS011;17168;49.164;9.060;2022-11-15T01:48:26;5.43;;;2.85;;
30378;SDS011;17168;49.164;9.060;2022-11-15T01:51:02;2.88;;;2.25;;
30378;SDS011;17168;49.164;9.060;2022-11-15T01:53:40;5.22;;;2.72;;
30378;SDS011;17168;49.164;9.060;2022-11-15T01:56:16;5.32;;;2.95;;
30378;SDS011;17168;49.164;9.060;2022-11-15T01:58:51;5.05;;;2.65;;
30378;SDS011;17168;49.164;9.060;2022-11-15T02:01:26;3.97;;;2.30;;
30378;SDS011;17168;49.164;9.060;2022-11-15T02:04:02;4.78;;;2.40;;
30378;SDS011;17168;49.164;9.060;2022-11-15T02:06:39;5.63;;;2.30;;
30378;SDS011;17168;49.164;9.060;2022-11-15T02:09:13;4.03;;;2.50;;
30378;SDS011;17168;49.164;9.060;2022-11-15T02:14:18;3.60;;;2.40;;
30378;SDS011;17168;49.164;9.060;2022-11-15T02:16:52;3.58;;;2.33;;
30378;SDS011;17168;49.164;9.060;2022-11-15T02:19:37;3.30;;;2.38;;
30378;SDS011;17168;49.164;9.060;2022-11-15T02:22:27;5.20;;;3.17;;
30378;SDS011;17168;49.164;9.060;2022-11-15T02:25:12;6.15;;;3.20;;
30378;SDS011;17168;49.164;9.060;2022-11-15T02:28:10;4.55;;;3.30;;
30378;SDS011;17168;49.164;9.060;2022-11-15T02:31:00;5.90;;;3.60;;
30378;SDS011;17168;49.164;9.060;2022-11-15T02:33:39;4.95;;;3.45;;
30378;SDS011;17168;49.164;9.060;2022-11-15T02:36:18;4.40;;;3.70;;
30378;SDS011;17168;49.164;9.060;2022-11-15T03:41:52;6.22;;;3.95;;
30378;SDS011;17168;49.164;9.060;2022-11-15T03:44:35;6.60;;;4.47;;
30378;SDS011;17168;49.164;9.060;2022-11-15T03:47:13;10.45;;;5.70;;
30378;SDS011;17168;49.164;9.060;2022-11-15T03:49:52;7.80;;;5.10;;
30378;SDS011;17168;49.164;9.060;2022-11-15T03:52:30;7.90;;;5.45;;
30378;SDS011;17168;49.164;9.060;2022-11-15T03:55:05;8.45;;;5.53;;
30378;SDS011;17168;49.164;9.060;2022-11-15T03:57:39;8.68;;;5.38;;
30378;SDS011;17168;49.164;9.060;2022-11-15T04:00:11;6.55;;;5.30;;
30378;SDS011;17168;49.164;9.060;2022-11-15T04:02:43;7.70;;;5.27;;
30378;SDS011;17168;49.164;9.060;2022-11-15T04:05:16;6.95;;;5.15;;
30378;SDS011;17168;49.164;9.060;2022-11-15T04:10:20;8.43;;;5.13;;
30378;SDS011;17168;49.164;9.060;2022-11-15T04:12:52;7.88;;;5.15;;
30378;SDS011;17168;49.164;9.060;2022-11-15T04:15:24;7.22;;;4.97;;
30378;SDS011;17168;49.164;9.060;2022-11-15T04:17:56;7.43;;;4.95;;
30378;SDS011;17168;49.164;9.060;2022-11-15T04:20:30;7.10;;;4.90;;
30378;SDS011;17168;49.164;9.060;2022-11-15T04:23:21;9.77;;;4.97;;
30378;SDS011;17168;49.164;9.060;2022-11-15T04:26:14;8.10;;;5.10;;
30378;SDS011;17168;49.164;9.060;2022-11-15T04:28:47;5.75;;;4.75;;
30378;SDS011;17168;49.164;9.060;2022-11-15T04:31:38;5.68;;;4.10;;
30378;SDS011;17168;49.164;9.060;2022-11-15T04:49:40;7.53;;;3.90;;
30378;SDS011;17168;49.164;9.060;2022-11-15T04:52:13;8.27;;;3.70;;
30378;SDS011;17168;49.164;9.060;2022-11-15T04:54:45;6.15;;;3.60;;
30378;SDS011;17168;49.164;9.060;2022-11-15T04:57:17;6.30;;;3.88;;
30378;SDS011;17168;49.164;9.060;2022-11-15T05:02:21;5.45;;;4.10;;
30378;SDS011;17168;49.164;9.060;2022-11-15T05:04:53;7.13;;;4.70;;
30378;SDS011;17168;49.164;9.060;2022-11-15T05:07:26;8.52;;;3.97;;
30378;SDS011;17168;49.164;9.060;2022-11-15T05:09:58;7.50;;;4.60;;
30378;SDS011;17168;49.164;9.060;2022-11-15T05:12:30;7.53;;;4.80;;
30378;SDS011;17168;49.164;9.060;2022-11-15T05:15:02;6.60;;;4.60;;
30378;SDS011;17168;49.164;9.060;2022-11-15T05:17:34;6.75;;;4.00;;
30378;SDS011;17168;49.164;9.060;2022-11-15T05:20:06;7.70;;;4.18;;
30378;SDS011;17168;49.164;9.060;2022-11-15T05:22:40;7.90;;;4.97;;
30378;SDS011;17168;49.164;9.060;2022-11-15T05:25:12;5.60;;;3.80;;
30378;SDS011;17168;49.164;9.060;2022-11-15T05:27:44;6.63;;;3.47;;
30378;SDS011;17168;49.164;9.060;2022-11-15T05:30:16;4.00;;;2.85;;
30378;SDS011;17168;49.164;9.060;2022-11-15T05:32:48;7.15;;;3.00;;
30378;SDS011;17168;49.164;9.060;2022-11-15T05:35:24;7.75;;;2.78;;
30378;SDS011;17168;49.164;9.060;2022-11-15T05:38:04;4.35;;;2.15;;
30378;SDS011;17168;49.164;9.060;2022-11-15T05:40:35;3.95;;;2.40;;
30378;SDS011;17168;49.164;9.060;2022-11-15T05:43:07;6.55;;;3.40;;
30378;SDS011;17168;49.164;9.060;2022-11-15T05:45:41;5.20;;;3.65;;
30378;SDS011;17168;49.164;9.060;2022-11-15T05:48:12;5.60;;;3.65;;
30378;SDS011;17168;49.164;9.060;2022-11-15T05:50:45;6.00;;;4.70;;
30378;SDS011;17168;49.164;9.060;2022-11-15T05:53:19;6.65;;;4.32;;
30378;SDS011;17168;49.164;9.060;2022-11-15T05:55:54;9.73;;;3.50;;
30378;SDS011;17168;49.164;9.060;2022-11-15T05:58:25;8.48;;;4.20;;
30378;SDS011;17168;49.164;9.060;2022-11-15T06:00:58;7.93;;;4.80;;
30378;SDS011;17168;49.164;9.060;2022-11-15T06:03:31;7.13;;;3.60;;
30378;SDS011;17168;49.164;9.060;2022-11-15T06:06:03;7.18;;;3.80;;
30378;SDS011;17168;49.164;9.060;2022-11-15T06:08:37;4.82;;;3.20;;
30378;SDS011;17168;49.164;9.060;2022-11-15T06:11:08;5.45;;;3.00;;
30378;SDS011;17168;49.164;9.060;2022-11-15T06:13:40;4.90;;;3.20;;
30378;SDS011;17168;49.164;9.060;2022-11-15T07:55:27;9.32;;;5.03;;
30378;SDS011;17168;49.164;9.060;2022-11-15T07:58:01;9.95;;;4.45;;
30378;SDS011;17168;49.164;9.060;2022-11-15T08:00:33;10.90;;;5.45;;
30378;SDS011;17168;49.164;9.060;2022-11-15T08:03:06;8.23;;;4.97;;
30378;SDS011;17168;49.164;9.060;2022-11-15T08:05:40;7.47;;;4.82;;
30378;SDS011;17168;49.164;9.060;2022-11-15T08:08:12;13.05;;;5.35;;
30378;SDS011;17168;49.164;9.060;2022-11-15T08:10:45;10.18;;;5.47;;
30378;SDS011;17168;49.164;9.060;2022-11-15T08:13:17;7.07;;;4.63;;
30378;SDS011;17168;49.164;9.060;2022-11-15T08:15:49;12.35;;;6.18;;
30378;SDS011;17168;49.164;9.060;2022-11-15T08:18:28;16.42;;;8.88;;
30378;SDS011;17168;49.164;9.060;2022-11-15T08:21:00;14.75;;;7.82;;
30378;SDS011;17168;49.164;9.060;2022-11-15T08:23:32;13.80;;;7.87;;
30378;SDS011;17168;49.164;9.060;2022-11-15T08:26:06;17.77;;;8.80;;
30378;SDS011;17168;49.164;9.060;2022-11-15T08:28:37;19.73;;;10.57;;
30378;SDS011;17168;49.164;9.060;2022-11-15T08:31:12;16.92;;;8.48;;
30378;SDS011;17168;49.164;9.060;2022-11-15T08:33:45;13.90;;;7.53;;
30378;SDS011;17168;49.164;9.060;2022-11-15T08:36:17;13.50;;;7.35;;
30378;SDS011;17168;49.164;9.060;2022-11-15T08:38:49;13.00;;;6.78;;
30378;SDS011;17168;49.164;9.060;2022-11-15T08:41:23;12.88;;;7.07;;
30378;SDS011;17168;49.164;9.060;2022-11-15T08:43:57;13.15;;;7.53;;
30378;SDS011;17168;49.164;9.060;2022-11-15T08:46:29;12.40;;;7.75;;
30378;SDS011;17168;49.164;9.060;2022-11-15T08:49:01;13.85;;;7.65;;
30378;SDS011;17168;49.164;9.060;2022-11-15T08:51:33;15.02;;;8.23;;
30378;SDS011;17168;49.164;9.060;2022-11-15T08:54:05;14.07;;;8.05;;
30378;SDS011;17168;49.164;9.060;2022-11-15T08:56:38;13.55;;;8.10;;
30378;SDS011;17168;49.164;9.060;2022-11-15T08:59:10;13.82;;;7.32;;
30378;SDS011;17168;49.164;9.060;2022-11-15T09:01:42;12.52;;;6.95;;
30378;SDS011;17168;49.164;9.060;2022-11-15T09:04:14;8.57;;;5.82;;
30378;SDS011;17168;49.164;9.060;2022-11-15T09:06:46;9.43;;;6.57;;
30378;SDS011;17168;49.164;9.060;2022-11-15T09:09:18;12.05;;;6.25;;
30378;SDS011;17168;49.164;9.060;2022-11-15T09:11:51;8.25;;;5.57;;
30378;SDS011;17168;49.164;9.060;2022-11-15T09:14:28;10.82;;;4.72;;
30378;SDS011;17168;49.164;9.060;2022-11-15T09:17:00;7.47;;;4.75;;
30378;SDS011;17168;49.164;9.060;2022-11-15T09:19:32;5.70;;;4.40;;
30378;SDS011;17168;49.164;9.060;2022-11-15T09:22:05;12.93;;;4.70;;
30378;SDS011;17168;49.164;9.060;2022-11-15T09:24:37;8.55;;;4.85;;
30378;SDS011;17168;49.164;9.060;2022-11-15T09:27:11;8.80;;;4.93;;
30378;SDS011;17168;49.164;9.060;2022-11-15T09:29:43;7.07;;;3.92;;
30378;SDS011;17168;49.164;9.060;2022-11-15T09:32:15;7.45;;;4.13;;
30378;SDS011;17168;49.164;9.060;2022-11-15T09:34:47;6.72;;;4.38;;
30378;SDS011;17168;49.164;9.060;2022-11-15T09:37:19;9.55;;;5.15;;
30378;SDS011;17168;49.164;9.060;2022-11-15T09:39:50;6.70;;;4.85;;
30378;SDS011;17168;49.164;9.060;2022-11-15T09:42:28;7.13;;;3.60;;
30378;SDS011;17168;49.164;9.060;2022-11-15T09:45:17;6.32;;;3.20;;
30378;SDS011;17168;49.164;9.060;2022-11-15T09:48:06;5.70;;;3.00;;
30378;SDS011;17168;49.164;9.060;2022-11-15T09:50:53;7.30;;;3.08;;
30378;SDS011;17168;49.164;9.060;2022-11-15T09:53:33;5.82;;;3.05;;
30378;SDS011;17168;49.164;9.060;2022-11-15T09:56:29;4.80;;;2.75;;
30378;SDS011;17168;49.164;9.060;2022-11-15T09:59:08;6.15;;;3.05;;
30378;SDS011;17168;49.164;9.060;2022-11-15T10:01:53;6.57;;;3.13;;
30378;SDS011;17168;49.164;9.060;2022-11-15T10:04:32;14.43;;;7.55;;
30378;SDS011;17168;49.164;9.060;2022-11-15T10:07:04;16.48;;;8.25;;
30378;SDS011;17168;49.164;9.060;2022-11-15T10:09:55;8.90;;;3.78;;
30378;SDS011;17168;49.164;9.060;2022-11-15T10:12:32;9.23;;;3.90;;
30378;SDS011;17168;49.164;9.060;2022-11-15T10:15:09;5.93;;;3.50;;
30378;SDS011;17168;49.164;9.060;2022-11-15T10:17:55;5.20;;;3.45;;
30378;SDS011;17168;49.164;9.060;2022-11-15T10:20:41;7.22;;;3.80;;
30378;SDS011;17168;49.164;9.060;2022-11-15T10:23:18;7.15;;;3.30;;
30378;SDS011;17168;49.164;9.060;2022-11-15T10:25:51;6.82;;;2.97;;
30378;SDS011;17168;49.164;9.060;2022-11-15T10:28:26;6.13;;;3.30;;
30378;SDS011;17168;49.164;9.060;2022-11-15T10:31:01;6.15;;;3.13;;
30378;SDS011;17168;49.164;9.060;2022-11-15T10:33:34;5.60;;;3.17;;
30378;SDS011;17168;49.164;9.060;2022-11-15T10:36:13;13.18;;;7.50;;
30378;SDS011;17168;49.164;9.060;2022-11-15T10:41:35;8.03;;;4.77;;
30378;SDS011;17168;49.164;9.060;2022-11-15T10:44:21;6.88;;;3.60;;
30378;SDS011;17168;49.164;9.060;2022-11-15T10:53:12;5.93;;;3.38;;
30378;SDS011;17168;49.164;9.060;2022-11-15T10:55:55;7.72;;;3.75;;
30378;SDS011;17168;49.164;9.060;2022-11-15T10:58:32;6.63;;;4.20;;
30378;SDS011;17168;49.164;9.060;2022-11-15T11:01:16;5.68;;;4.10;;
30378;SDS011;17168;49.164;9.060;2022-11-15T11:06:30;6.63;;;4.10;;
30378;SDS011;17168;49.164;9.060;2022-11-15T11:09:23;6.85;;;3.72;;
30378;SDS011;17168;49.164;9.060;2022-11-15T11:12:00;8.00;;;3.58;;
30378;SDS011;17168;49.164;9.060;2022-11-15T11:14:36;5.15;;;3.78;;
30378;SDS011;17168;49.164;9.060;2022-11-15T11:17:11;11.02;;;6.07;;
30378;SDS011;17168;49.164;9.060;2022-11-15T11:19:55;4.30;;;2.97;;
30378;SDS011;17168;49.164;9.060;2022-11-15T11:22:32;7.97;;;3.60;;
30378;SDS011;17168;49.164;9.060;2022-11-15T11:25:16;5.03;;;3.10;;
30378;SDS011;17168;49.164;9.060;2022-11-15T11:27:59;6.53;;;2.90;;
30378;SDS011;17168;49.164;9.060;2022-11-15T11:30:47;5.38;;;2.83;;
30378;SDS011;17168;49.164;9.060;2022-11-15T11:33:29;5.25;;;2.67;;
30378;SDS011;17168;49.164;9.060;2022-11-15T11:36:08;4.45;;;3.00;;
30378;SDS011;17168;49.164;9.060;2022-11-15T11:38:53;9.40;;;3.60;;
30378;SDS011;17168;49.164;9.060;2022-11-15T11:41:43;5.32;;;3.80;;
30378;SDS011;17168;49.164;9.060;2022-11-15T11:44:26;9.23;;;5.05;;
30378;SDS011;17168;49.164;9.060;2022-11-15T11:47:07;12.68;;;5.22;;
30378;SDS011;17168;49.164;9.060;2022-11-15T11:49:43;8.98;;;4.70;;
30378;SDS011;17168;49.164;9.060;2022-11-15T11:52:22;7.47;;;4.32;;
30378;SDS011;17168;49.164;9.060;2022-11-15T11:54:59;5.97;;;4.05;;
30378;SDS011;17168;49.164;9.060;2022-11-15T11:57:40;5.53;;;3.30;;
30378;SDS011;17168;49.164;9.060;2022-11-15T12:00:18;7.82;;;3.22;;
30378;SDS011;17168;49.164;9.060;2022-11-15T12:02:55;4.80;;;3.67;;
30378;SDS011;17168;49.164;9.060;2022-11-15T12:05:37;5.07;;;3.28;;
30378;SDS011;17168;49.164;9.060;2022-11-15T12:08:18;5.25;;;3.10;;
30378;SDS011;17168;49.164;9.060;2022-11-15T12:10:59;5.68;;;3.47;;
30378;SDS011;17168;49.164;9.060;2022-11-15T12:13:37;7.93;;;3.60;;
30378;SDS011;17168;49.164;9.060;2022-11-15T12:16:11;7.72;;;3.53;;
30378;SDS011;17168;49.164;9.060;2022-11-15T12:18:47;7.25;;;3.80;;
30378;SDS011;17168;49.164;9.060;2022-11-15T12:21:24;5.82;;;3.67;;
30378;SDS011;17168;49.164;9.060;2022-11-15T12:24:06;5.70;;;3.95;;
30378;SDS011;17168;49.164;9.060;2022-11-15T12:26:45;8.52;;;4.00;;
30378;SDS011;17168;49.164;9.060;2022-11-15T12:29:25;6.50;;;3.60;;
30378;SDS011;17168;49.164;9.060;2022-11-15T12:32:03;7.68;;;3.70;;
30378;SDS011;17168;49.164;9.060;2022-11-15T12:34:42;6.15;;;3.67;;
30378;SDS011;17168;49.164;9.060;2022-11-15T12:43:39;7.15;;;4.68;;
30378;SDS011;17168;49.164;9.060;2022-11-15T12:46:12;8.52;;;5.43;;
30378;SDS011;17168;49.164;9.060;2022-11-15T12:48:54;7.88;;;4.47;;
30378;SDS011;17168;49.164;9.060;2022-11-15T12:54:52;9.13;;;4.47;;
30378;SDS011;17168;49.164;9.060;2022-11-15T12:57:30;8.15;;;4.60;;
30378;SDS011;17168;49.164;9.060;2022-11-15T13:03:20;11.02;;;5.30;;
30378;SDS011;17168;49.164;9.060;2022-11-15T13:05:56;8.57;;;4.65;;
30378;SDS011;17168;49.164;9.060;2022-11-15T13:08:56;9.93;;;4.80;;
30378;SDS011;17168;49.164;9.060;2022-11-15T13:11:44;7.80;;;4.20;;
30378;SDS011;17168;49.164;9.060;2022-11-15T13:17:27;7.78;;;5.45;;
30378;SDS011;17168;49.164;9.060;2022-11-15T13:23:07;12.55;;;4.82;;
30378;SDS011;17168;49.164;9.060;2022-11-15T13:25:49;6.13;;;4.28;;
30378;SDS011;17168;49.164;9.060;2022-11-15T13:28:30;7.65;;;4.40;;
30378;SDS011;17168;49.164;9.060;2022-11-15T13:31:14;8.02;;;4.68;;
30378;SDS011;17168;49.164;9.060;2022-11-15T13:34:00;10.07;;;4.32;;
30378;SDS011;17168;49.164;9.060;2022-11-15T13:36:56;8.45;;;4.65;;
30378;SDS011;17168;49.164;9.060;2022-11-15T13:39:29;9.82;;;5.50;;
30378;SDS011;17168;49.164;9.060;2022-11-15T13:42:02;8.93;;;5.32;;
30378;SDS011;17168;49.164;9.060;2022-11-15T13:44:37;9.70;;;5.65;;
30378;SDS011;17168;49.164;9.060;2022-11-15T13:47:12;9.57;;;5.00;;
30378;SDS011;17168;49.164;9.060;2022-11-15T13:49:48;8.40;;;4.22;;
30378;SDS011;17168;49.164;9.060;2022-11-15T13:52:21;8.35;;;4.05;;
30378;SDS011;17168;49.164;9.060;2022-11-15T13:54:55;6.05;;;3.47;;
30378;SDS011;17168;49.164;9.060;2022-11-15T13:57:34;4.38;;;3.35;;
30378;SDS011;17168;49.164;9.060;2022-11-15T14:00:25;6.00;;;3.33;;
30378;SDS011;17168;49.164;9.060;2022-11-15T14:03:08;8.85;;;3.33;;
30378;SDS011;17168;49.164;9.060;2022-11-15T14:08:36;8.73;;;4.20;;
30378;SDS011;17168;49.164;9.060;2022-11-15T14:11:09;8.15;;;4.57;;
30378;SDS011;17168;49.164;9.060;2022-11-15T14:13:59;7.43;;;4.30;;
30378;SDS011;17168;49.164;9.060;2022-11-15T14:16:37;7.40;;;3.70;;
30378;SDS011;17168;49.164;9.060;2022-11-15T14:19:11;6.13;;;4.00;;
30378;SDS011;17168;49.164;9.060;2022-11-15T14:24:50;8.00;;;4.70;;
30378;SDS011;17168;49.164;9.060;2022-11-15T14:27:37;9.00;;;3.70;;
30378;SDS011;17168;49.164;9.060;2022-11-15T14:30:13;7.23;;;3.83;;
30378;SDS011;17168;49.164;9.060;2022-11-15T14:32:46;8.18;;;4.10;;
30378;SDS011;17168;49.164;9.060;2022-11-15T14:35:21;7.53;;;3.95;;
30378;SDS011;17168;49.164;9.060;2022-11-15T14:37:54;9.43;;;4.20;;
30378;SDS011;17168;49.164;9.060;2022-11-15T14:40:27;6.82;;;4.00;;
30378;SDS011;17168;49.164;9.060;2022-11-15T14:43:00;7.18;;;4.50;;
30378;SDS011;17168;49.164;9.060;2022-11-15T14:45:32;7.78;;;4.90;;
30378;SDS011;17168;49.164;9.060;2022-11-15T14:48:04;8.75;;;4.38;;
30378;SDS011;17168;49.164;9.060;2022-11-15T14:50:36;13.77;;;8.50;;
30378;SDS011;17168;49.164;9.060;2022-11-15T14:53:11;13.73;;;6.55;;
30378;SDS011;17168;49.164;9.060;2022-11-15T14:55:47;11.10;;;6.25;;
30378;SDS011;17168;49.164;9.060;2022-11-15T14:58:19;12.00;;;6.97;;
30378;SDS011;17168;49.164;9.060;2022-11-15T15:00:50;9.93;;;5.90;;
30378;SDS011;17168;49.164;9.060;2022-11-15T15:03:22;8.65;;;5.03;;
30378;SDS011;17168;49.164;9.060;2022-11-15T15:05:54;10.07;;;5.63;;
30378;SDS011;17168;49.164;9.060;2022-11-15T15:08:27;10.23;;;5.93;;
30378;SDS011;17168;49.164;9.060;2022-11-15T15:11:00;10.00;;;6.30;;
30378;SDS011;17168;49.164;9.060;2022-11-15T15:13:32;57.65;;;33.78;;
30378;SDS011;17168;49.164;9.060;2022-11-15T15:16:04;30.50;;;17.50;;
30378;SDS011;17168;49.164;9.060;2022-11-15T15:18:36;23.52;;;13.50;;
30378;SDS011;17168;49.164;9.060;2022-11-15T15:21:14;14.38;;;7.53;;
30378;SDS011;17168;49.164;9.060;2022-11-15T15:23:53;13.57;;;7.45;;
30378;SDS011;17168;49.164;9.060;2022-11-15T15:26:28;12.85;;;7.05;;
30378;SDS011;17168;49.164;9.060;2022-11-15T15:31:32;13.93;;;6.75;;
30378;SDS011;17168;49.164;9.060;2022-11-15T15:34:04;16.67;;;7.45;;
30378;SDS011;17168;49.164;9.060;2022-11-15T15:36:36;16.63;;;8.43;;
30378;SDS011;17168;49.164;9.060;2022-11-15T15:39:08;12.73;;;7.07;;
30378;SDS011;17168;49.164;9.060;2022-11-15T15:41:42;14.27;;;7.82;;
30378;SDS011;17168;49.164;9.060;2022-11-15T15:44:14;10.73;;;6.47;;
30378;SDS011;17168;49.164;9.060;2022-11-15T15:46:46;6.40;;;4.90;;
30378;SDS011;17168;49.164;9.060;2022-11-15T15:49:18;9.55;;;5.20;;
30378;SDS011;17168;49.164;9.060;2022-11-15T15:51:50;9.25;;;5.22;;
30378;SDS011;17168;49.164;9.060;2022-11-15T15:54:21;7.68;;;4.25;;
30378;SDS011;17168;49.164;9.060;2022-11-15T15:56:55;4.85;;;3.88;;
30378;SDS011;17168;49.164;9.060;2022-11-15T15:59:26;6.65;;;3.70;;
30378;SDS011;17168;49.164;9.060;2022-11-15T16:01:58;8.63;;;3.80;;
30378;SDS011;17168;49.164;9.060;2022-11-15T16:04:31;6.65;;;3.78;;
30378;SDS011;17168;49.164;9.060;2022-11-15T16:07:12;6.07;;;3.00;;
30378;SDS011;17168;49.164;9.060;2022-11-15T16:09:48;4.72;;;3.53;;
30378;SDS011;17168;49.164;9.060;2022-11-15T16:12:34;5.05;;;3.45;;
30378;SDS011;17168;49.164;9.060;2022-11-15T16:17:39;11.55;;;6.35;;
30378;SDS011;17168;49.164;9.060;2022-11-15T16:20:20;16.70;;;9.15;;
30378;SDS011;17168;49.164;9.060;2022-11-15T16:23:04;29.02;;;13.13;;
30378;SDS011;17168;49.164;9.060;2022-11-15T16:25:41;29.63;;;12.95;;
30378;SDS011;17168;49.164;9.060;2022-11-15T16:28:18;33.75;;;15.27;;
30378;SDS011;17168;49.164;9.060;2022-11-15T16:30:59;106.10;;;33.17;;
30378;SDS011;17168;49.164;9.060;2022-11-15T16:33:32;125.53;;;38.72;;
30378;SDS011;17168;49.164;9.060;2022-11-15T16:36:05;92.10;;;29.48;;
30378;SDS011;17168;49.164;9.060;2022-11-15T16:38:44;50.50;;;18.60;;
30378;SDS011;17168;49.164;9.060;2022-11-15T16:41:15;47.55;;;17.73;;
30378;SDS011;17168;49.164;9.060;2022-11-15T16:43:50;32.17;;;19.60;;
30378;SDS011;17168;49.164;9.060;2022-11-15T16:46:23;31.75;;;17.13;;
30378;SDS011;17168;49.164;9.060;2022-11-15T16:48:56;20.52;;;11.80;;
30378;SDS011;17168;49.164;9.060;2022-11-15T16:51:28;26.20;;;13.18;;
30378;SDS011;17168;49.164;9.060;2022-11-15T16:54:00;19.60;;;11.45;;
30378;SDS011;17168;49.164;9.060;2022-11-15T16:56:32;17.63;;;10.70;;
30378;SDS011;17168;49.164;9.060;2022-11-15T16:59:06;19.60;;;11.63;;
30378;SDS011;17168;49.164;9.060;2022-11-15T17:01:41;17.00;;;10.68;;
30378;SDS011;17168;49.164;9.060;2022-11-15T17:04:23;15.50;;;10.18;;
30378;SDS011;17168;49.164;9.060;2022-11-15T17:06:57;9.32;;;5.57;;
30378;SDS011;17168;49.164;9.060;2022-11-15T17:09:30;9.43;;;5.47;;
30378;SDS011;17168;49.164;9.060;2022-11-15T17:12:03;9.18;;;7.43;;
30378;SDS011;17168;49.164;9.060;2022-11-15T17:14:37;9.70;;;6.75;;
30378;SDS011;17168;49.164;9.060;2022-11-15T17:17:09;8.90;;;5.18;;
30378;SDS011;17168;49.164;9.060;2022-11-15T17:19:41;10.68;;;6.72;;
30378;SDS011;17168;49.164;9.060;2022-11-15T17:22:13;12.10;;;7.80;;
30378;SDS011;17168;49.164;9.060;2022-11-15T17:24:45;13.70;;;7.53;;
30378;SDS011;17168;49.164;9.060;2022-11-15T17:27:17;14.35;;;7.60;;
30378;SDS011;17168;49.164;9.060;2022-11-15T17:29:50;16.77;;;10.23;;
30378;SDS011;17168;49.164;9.060;2022-11-15T17:32:22;14.00;;;8.57;;
30378;SDS011;17168;49.164;9.060;2022-11-15T17:34:54;12.40;;;7.90;;
30378;SDS011;17168;49.164;9.060;2022-11-15T17:37:26;13.55;;;7.40;;
30378;SDS011;17168;49.164;9.060;2022-11-15T17:39:58;21.60;;;9.60;;
30378;SDS011;17168;49.164;9.060;2022-11-15T17:42:31;15.50;;;8.38;;
30378;SDS011;17168;49.164;9.060;2022-11-15T17:45:05;10.27;;;5.82;;
30378;SDS011;17168;49.164;9.060;2022-11-15T17:47:40;11.85;;;6.10;;
30378;SDS011;17168;49.164;9.060;2022-11-15T17:50:13;22.50;;;8.85;;
30378;SDS011;17168;49.164;9.060;2022-11-15T17:52:45;9.03;;;5.43;;
30378;SDS011;17168;49.164;9.060;2022-11-15T17:55:17;8.90;;;5.85;;
30378;SDS011;17168;49.164;9.060;2022-11-15T17:57:49;17.98;;;9.80;;
30378;SDS011;17168;49.164;9.060;2022-11-15T18:00:22;12.50;;;7.32;;
30378;SDS011;17168;49.164;9.060;2022-11-15T18:02:55;10.07;;;7.07;;
30378;SDS011;17168;49.164;9.060;2022-11-15T18:07:59;7.63;;;4.80;;
30378;SDS011;17168;49.164;9.060;2022-11-15T18:10:30;5.97;;;3.75;;
30378;SDS011;17168;49.164;9.060;2022-11-15T18:13:02;6.65;;;3.67;;
30378;SDS011;17168;49.164;9.060;2022-11-15T18:15:36;6.07;;;2.85;;
30378;SDS011;17168;49.164;9.060;2022-11-15T18:18:07;4.43;;;2.83;;
30378;SDS011;17168;49.164;9.060;2022-11-15T18:20:39;4.40;;;2.65;;
30378;SDS011;17168;49.164;9.060;2022-11-15T18:23:11;8.18;;;3.05;;
30378;SDS011;17168;49.164;9.060;2022-11-15T18:25:43;6.63;;;3.08;;
30378;SDS011;17168;49.164;9.060;2022-11-15T18:28:21;4.80;;;3.03;;
30378;SDS011;17168;49.164;9.060;2022-11-15T18:31:00;5.47;;;3.40;;
30378;SDS011;17168;49.164;9.060;2022-11-15T18:33:33;4.07;;;2.67;;
30378;SDS011;17168;49.164;9.060;2022-11-15T18:36:06;4.13;;;2.70;;
30378;SDS011;17168;49.164;9.060;2022-11-15T18:38:40;5.43;;;3.28;;
30378;SDS011;17168;49.164;9.060;2022-11-15T18:41:13;5.82;;;3.25;;
30378;SDS011;17168;49.164;9.060;2022-11-15T18:43:48;6.22;;;3.33;;
30378;SDS011;17168;49.164;9.060;2022-11-15T18:46:22;4.50;;;3.37;;
30378;SDS011;17168;49.164;9.060;2022-11-15T18:48:56;5.15;;;3.67;;
30378;SDS011;17168;49.164;9.060;2022-11-15T18:51:30;7.95;;;3.35;;
30378;SDS011;17168;49.164;9.060;2022-11-15T18:54:02;8.07;;;3.85;;
30378;SDS011;17168;49.164;9.060;2022-11-15T18:56:34;7.88;;;4.18;;
30378;SDS011;17168;49.164;9.060;2022-11-15T18:59:06;9.05;;;4.03;;
30378;SDS011;17168;49.164;9.060;2022-11-15T19:01:40;5.33;;;3.60;;
30378;SDS011;17168;49.164;9.060;2022-11-15T19:04:15;8.70;;;4.28;;
30378;SDS011;17168;49.164;9.060;2022-11-15T19:06:48;6.95;;;4.10;;
30378;SDS011;17168;49.164;9.060;2022-11-15T19:09:21;5.50;;;4.30;;
30378;SDS011;17168;49.164;9.060;2022-11-15T19:11:57;7.07;;;4.90;;
30378;SDS011;17168;49.164;9.060;2022-11-15T19:14:29;11.02;;;5.97;;
30378;SDS011;17168;49.164;9.060;2022-11-15T19:17:02;11.32;;;7.10;;
30378;SDS011;17168;49.164;9.060;2022-11-15T19:19:34;12.27;;;7.40;;
30378;SDS011;17168;49.164;9.060;2022-11-15T19:22:06;11.55;;;6.80;;
30378;SDS011;17168;49.164;9.060;2022-11-15T19:24:38;10.13;;;6.43;;